createdAt,value
2022-12-12T00:01:21.372Z,33.13
2022-12-12T00:02:42.229Z,32.42
2022-12-12T00:04:03.690Z,31.90
2022-12-12T00:05:24.495Z,32.10
2022-12-12T00:06:45.090Z,33.40
2022-12-12T00:08:06.120Z,34.08
2022-12-12T00:09:26.986Z,32.42
2022-12-12T00:10:47.803Z,33.45
2022-12-12T00:12:09.833Z,35.58
2022-12-12T00:13:30.470Z,36.47
2022-12-12T00:14:51.100Z,33.95
2022-12-12T00:16:12.719Z,33.88
2022-12-12T00:17:33.203Z,34.92
2022-12-12T00:18:54.142Z,35.10
2022-12-12T00:20:15.063Z,34.83
2022-12-12T00:21:35.627Z,34.05
2022-12-12T00:22:56.444Z,34.65
2022-12-12T00:24:17.219Z,34.70
2022-12-12T00:25:37.827Z,35.65
2022-12-12T00:26:58.275Z,37.00
2022-12-12T00:28:20.159Z,34.58
2022-12-12T00:29:40.966Z,35.15
2022-12-12T00:31:01.671Z,34.85
2022-12-12T00:32:23.242Z,35.30
2022-12-12T00:33:44.342Z,35.92
2022-12-12T00:35:05.852Z,33.60
2022-12-12T00:36:28.810Z,35.45
2022-12-12T00:37:49.522Z,33.63
2022-12-12T00:39:15.168Z,33.83
2022-12-12T00:40:38.410Z,34.78
2022-12-12T00:41:59.047Z,32.78
2022-12-12T00:43:21.217Z,33.40
2022-12-12T00:44:41.761Z,34.60
2022-12-12T00:46:02.536Z,33.37
2022-12-12T00:47:23.218Z,34.63
2022-12-12T00:48:44.519Z,35.28
2022-12-12T00:50:06.359Z,34.38
2022-12-12T00:51:28.437Z,34.13
2022-12-12T00:52:49.026Z,33.92
2022-12-12T00:54:09.981Z,33.88
2022-12-12T00:55:30.388Z,33.20
2022-12-12T00:56:51.256Z,36.90
2022-12-12T00:58:13.677Z,32.40
2022-12-12T00:59:35.512Z,34.60
2022-12-12T01:00:59.110Z,36.08
2022-12-12T01:02:24.870Z,31.60
2022-12-12T01:03:49.186Z,34.85
2022-12-12T01:05:10.747Z,34.10
2022-12-12T01:06:31.808Z,34.72
2022-12-12T01:07:52.619Z,33.05
2022-12-12T01:09:13.094Z,33.75
2022-12-12T01:10:33.798Z,35.85
2022-12-12T01:11:54.308Z,33.80
2022-12-12T01:13:14.938Z,32.70
2022-12-12T01:14:36.745Z,34.35
2022-12-12T01:15:57.799Z,34.97
2022-12-12T01:17:18.515Z,34.55
2022-12-12T01:18:39.755Z,35.75
2022-12-12T01:20:00.344Z,35.22
2022-12-12T01:21:21.642Z,33.63
2022-12-12T01:22:42.258Z,34.80
2022-12-12T01:24:03.091Z,32.65
2022-12-12T01:25:23.704Z,34.07
2022-12-12T01:26:44.811Z,36.13
2022-12-12T01:28:05.689Z,34.75
2022-12-12T01:29:26.209Z,37.28
2022-12-12T01:30:48.512Z,33.28
2022-12-12T01:32:08.925Z,35.50
2022-12-12T01:33:30.115Z,37.38
2022-12-12T01:34:50.584Z,34.55
2022-12-12T01:36:12.082Z,33.85
2022-12-12T01:37:32.355Z,38.47
2022-12-12T01:38:54.719Z,34.50
2022-12-12T01:40:17.939Z,34.10
2022-12-12T01:41:38.509Z,35.47
2022-12-12T01:42:59.513Z,36.05
2022-12-12T01:44:41.735Z,35.28
2022-12-12T01:46:39.133Z,35.22
2022-12-12T01:48:05.016Z,34.75
2022-12-12T01:49:26.517Z,36.33
2022-12-12T01:50:47.602Z,36.15
2022-12-12T01:52:11.399Z,37.38
2022-12-12T01:53:32.116Z,33.58
2022-12-12T01:54:56.262Z,35.78
2022-12-12T01:56:19.369Z,34.88
2022-12-12T01:57:43.615Z,34.78
2022-12-12T01:59:06.133Z,34.42
2022-12-12T02:00:26.896Z,32.20
2022-12-12T02:01:49.210Z,35.22
2022-12-12T02:03:10.072Z,33.65
2022-12-12T02:04:30.877Z,34.20
2022-12-12T02:05:53.804Z,37.47
2022-12-12T02:07:14.530Z,35.85
2022-12-12T02:08:35.360Z,38.47
2022-12-12T02:09:56.025Z,38.40
2022-12-12T02:11:16.760Z,37.60
2022-12-12T02:12:37.614Z,41.15
2022-12-12T02:13:59.190Z,37.58
2022-12-12T02:15:19.643Z,36.13
2022-12-12T02:17:04.473Z,40.63
2022-12-12T02:18:28.729Z,35.95
2022-12-12T02:20:25.856Z,37.08
2022-12-12T02:21:51.407Z,36.30
2022-12-12T02:23:38.557Z,39.78
2022-12-12T02:25:20.412Z,38.38
2022-12-12T02:28:40.242Z,35.65
2022-12-12T02:30:14.118Z,38.42
2022-12-12T02:31:40.904Z,34.72
2022-12-12T02:33:15.557Z,38.33
2022-12-12T02:34:41.210Z,40.05
2022-12-12T02:36:11.711Z,40.15
2022-12-12T02:37:38.604Z,37.97
2022-12-12T02:39:05.596Z,37.92
2022-12-12T02:40:33.999Z,39.60
2022-12-12T02:41:57.384Z,39.20
2022-12-12T02:43:22.990Z,39.30
2022-12-12T02:44:48.604Z,37.47
2022-12-12T02:46:13.592Z,40.00
2022-12-12T02:47:40.466Z,37.38
2022-12-12T02:49:03.945Z,39.55
2022-12-12T02:50:26.332Z,36.40
2022-12-12T02:51:48.059Z,37.88
2022-12-12T02:54:28.639Z,37.50
2022-12-12T02:55:49.520Z,38.97
2022-12-12T02:57:14.629Z,40.33
2022-12-12T02:58:36.829Z,40.75
2022-12-12T02:59:59.778Z,40.28
2022-12-12T03:01:26.454Z,42.03
2022-12-12T03:03:00.680Z,40.63
2022-12-12T03:04:27.021Z,40.85
2022-12-12T03:05:55.557Z,42.63
2022-12-12T03:07:24.197Z,40.97
2022-12-12T03:08:57.368Z,39.95
2022-12-12T03:10:30.882Z,41.97
2022-12-12T03:12:01.862Z,39.85
2022-12-12T03:13:30.221Z,39.78
2022-12-12T03:14:57.092Z,41.80
2022-12-12T03:16:24.569Z,40.42
2022-12-12T03:17:49.875Z,40.40
2022-12-12T03:19:17.586Z,44.38
2022-12-12T03:20:43.091Z,40.67
2022-12-12T03:22:08.315Z,46.10
2022-12-12T03:23:32.679Z,41.58
2022-12-12T03:24:57.655Z,41.78
2022-12-12T03:26:23.743Z,42.45
2022-12-12T03:27:50.069Z,41.90
2022-12-12T03:29:13.939Z,43.00
2022-12-12T03:30:38.953Z,44.28
2022-12-12T03:32:05.715Z,41.05
2022-12-12T03:33:30.225Z,40.65
2022-12-12T03:34:56.004Z,42.00
2022-12-12T03:36:21.246Z,40.28
2022-12-12T03:37:45.718Z,39.08
2022-12-12T03:39:11.203Z,42.10
2022-12-12T03:40:36.643Z,41.40
2022-12-12T03:42:02.305Z,43.22
2022-12-12T03:43:25.351Z,42.72
2022-12-12T03:44:49.373Z,43.00
2022-12-12T03:46:15.620Z,43.15
2022-12-12T03:47:42.377Z,43.38
2022-12-12T03:49:04.504Z,45.38
2022-12-12T03:50:28.555Z,42.75
2022-12-12T03:51:52.559Z,42.40
2022-12-12T03:53:17.267Z,42.83
2022-12-12T03:54:42.101Z,44.03
2022-12-12T03:56:05.742Z,43.50
2022-12-12T03:57:28.812Z,41.53
2022-12-12T03:58:51.740Z,41.95
2022-12-12T04:00:14.112Z,40.63
2022-12-12T04:01:39.963Z,42.33
2022-12-12T04:03:06.049Z,40.38
2022-12-12T04:04:29.693Z,39.55
2022-12-12T04:05:58.026Z,39.75
2022-12-12T04:07:21.413Z,39.58
2022-12-12T04:08:42.422Z,38.88
2022-12-12T04:10:04.006Z,39.53
2022-12-12T04:11:24.566Z,39.47
2022-12-12T04:12:50.823Z,37.50
2022-12-12T04:14:19.794Z,40.38
2022-12-12T04:15:50.346Z,38.13
2022-12-12T04:17:14.715Z,38.37
2022-12-12T04:18:38.014Z,39.72
2022-12-12T04:20:03.654Z,38.58
2022-12-12T04:21:32.631Z,39.38
2022-12-12T04:22:59.254Z,39.75
2022-12-12T04:24:23.673Z,41.08
2022-12-12T04:25:57.697Z,39.38
2022-12-12T04:27:21.948Z,37.38
2022-12-12T04:28:48.825Z,38.05
2022-12-12T04:30:11.933Z,37.97
2022-12-12T04:31:34.494Z,38.08
2022-12-12T04:33:01.642Z,37.03
2022-12-12T04:34:28.353Z,37.22
2022-12-12T04:35:51.482Z,36.35
2022-12-12T04:37:15.881Z,39.00
2022-12-12T04:38:37.401Z,37.20
2022-12-12T04:40:01.017Z,36.92
2022-12-12T04:41:22.792Z,38.10
2022-12-12T04:42:46.873Z,38.13
2022-12-12T04:44:08.326Z,35.65
2022-12-12T04:45:32.079Z,35.05
2022-12-12T04:46:54.826Z,38.75
2022-12-12T04:48:16.841Z,36.88
2022-12-12T04:49:37.721Z,37.38
2022-12-12T04:50:59.753Z,39.28
2022-12-12T04:52:22.897Z,38.83
2022-12-12T04:53:47.473Z,38.58
2022-12-12T04:55:11.296Z,39.13
2022-12-12T04:56:34.758Z,37.08
2022-12-12T04:57:56.353Z,38.90
2022-12-12T04:59:17.102Z,40.78
2022-12-12T05:00:41.401Z,39.35
2022-12-12T05:02:06.002Z,39.78
2022-12-12T05:03:33.154Z,37.90
2022-12-12T05:04:57.494Z,39.25
2022-12-12T05:06:21.424Z,39.28
2022-12-12T05:07:44.789Z,37.40
2022-12-12T05:09:05.350Z,36.55
2022-12-12T05:10:25.937Z,38.63
2022-12-12T05:11:47.881Z,39.22
2022-12-12T05:13:16.096Z,35.08
2022-12-12T05:14:36.555Z,36.30
2022-12-12T05:15:58.819Z,35.63
2022-12-12T05:17:24.980Z,36.53
2022-12-12T05:18:45.818Z,37.33
2022-12-12T05:20:07.462Z,36.85
2022-12-12T05:21:27.981Z,34.97
2022-12-12T05:22:49.591Z,35.83
2022-12-12T05:24:10.218Z,36.90
2022-12-12T05:25:31.111Z,37.67
2022-12-12T05:26:51.643Z,40.00
2022-12-12T05:28:12.406Z,37.95
2022-12-12T05:29:32.887Z,39.15
2022-12-12T05:30:53.444Z,36.20
2022-12-12T05:32:13.996Z,37.00
2022-12-12T05:33:34.443Z,36.10
2022-12-12T05:34:55.157Z,39.10
2022-12-12T05:36:16.194Z,37.15
2022-12-12T05:37:37.147Z,38.00
2022-12-12T05:38:59.125Z,37.42
2022-12-12T05:40:20.709Z,37.17
2022-12-12T05:41:41.358Z,35.63
2022-12-12T05:43:01.953Z,35.42
2022-12-12T05:44:22.766Z,36.78
2022-12-12T05:45:43.206Z,36.10
2022-12-12T05:47:04.084Z,34.35
2022-12-12T05:48:24.842Z,35.88
2022-12-12T05:49:45.737Z,36.13
2022-12-12T05:51:06.224Z,37.60
2022-12-12T05:52:27.242Z,35.65
2022-12-12T05:53:47.934Z,37.08
2022-12-12T05:55:10.179Z,35.40
2022-12-12T05:56:31.056Z,36.20
2022-12-12T05:57:51.421Z,35.63
2022-12-12T05:59:12.090Z,34.97
2022-12-12T06:00:32.512Z,35.63
2022-12-12T06:01:52.984Z,37.28
2022-12-12T06:03:13.390Z,35.60
2022-12-12T06:04:34.023Z,37.70
2022-12-12T06:05:54.863Z,37.53
2022-12-12T06:07:15.922Z,35.55
2022-12-12T06:08:36.279Z,35.63
2022-12-12T06:09:56.399Z,35.50
2022-12-12T06:11:18.206Z,40.15
2022-12-12T06:12:38.962Z,35.78
2022-12-12T06:13:59.716Z,37.22
2022-12-12T06:15:20.351Z,36.22
2022-12-12T06:16:41.041Z,36.25
2022-12-12T06:18:01.764Z,39.13
2022-12-12T06:19:22.322Z,38.03
2022-12-12T06:20:43.042Z,37.47
2022-12-12T06:22:03.749Z,37.88
2022-12-12T06:23:24.490Z,39.97
2022-12-12T06:24:45.174Z,39.38
2022-12-12T06:26:06.732Z,36.47
2022-12-12T06:27:28.983Z,36.70
2022-12-12T06:28:49.628Z,36.78
2022-12-12T06:30:11.209Z,36.90
2022-12-12T06:31:32.211Z,38.58
2022-12-12T06:32:52.912Z,39.33
2022-12-12T06:34:13.833Z,36.65
2022-12-12T06:35:35.033Z,36.33
2022-12-12T06:36:55.880Z,38.38
2022-12-12T06:38:16.479Z,35.03
2022-12-12T06:39:37.707Z,38.22
2022-12-12T06:40:58.597Z,38.38
2022-12-12T06:42:18.924Z,34.47
2022-12-12T06:43:41.373Z,37.20
2022-12-12T06:45:01.836Z,36.28
2022-12-12T06:46:25.011Z,37.45
2022-12-12T06:47:45.309Z,36.10
2022-12-12T06:49:05.914Z,37.93
2022-12-12T06:50:26.813Z,36.05
2022-12-12T06:51:47.583Z,38.05
2022-12-12T06:53:08.683Z,36.17
2022-12-12T06:54:29.168Z,34.45
2022-12-12T06:55:49.692Z,34.80
2022-12-12T06:57:10.325Z,35.97
2022-12-12T06:58:31.041Z,34.60
2022-12-12T06:59:52.987Z,33.83
2022-12-12T07:01:17.779Z,37.70
2022-12-12T07:02:38.380Z,37.42
2022-12-12T07:03:59.018Z,35.55
2022-12-12T07:05:20.027Z,35.58
2022-12-12T07:06:40.872Z,35.40
2022-12-12T07:08:01.817Z,36.53
2022-12-12T07:09:22.445Z,36.28
2022-12-12T07:10:43.232Z,36.80
2022-12-12T07:12:04.639Z,35.53
2022-12-12T07:13:25.190Z,35.47
2022-12-12T07:14:45.894Z,33.75
2022-12-12T07:16:08.268Z,34.20
2022-12-12T07:17:28.635Z,38.38
2022-12-12T07:18:49.328Z,36.10
2022-12-12T07:20:10.244Z,35.05
2022-12-12T07:21:30.930Z,35.25
2022-12-12T07:22:51.641Z,37.65
2022-12-12T07:24:12.174Z,34.10
2022-12-12T07:25:32.702Z,34.13
2022-12-12T07:26:53.436Z,36.15
2022-12-12T07:28:14.497Z,34.65
2022-12-12T07:29:35.040Z,36.22
2022-12-12T07:30:58.413Z,35.15
2022-12-12T07:32:20.523Z,34.17
2022-12-12T07:33:44.485Z,34.30
2022-12-12T07:35:05.722Z,37.08
2022-12-12T07:36:26.417Z,34.55
2022-12-12T07:37:47.063Z,34.58
2022-12-12T07:39:08.062Z,35.53
2022-12-12T07:40:29.134Z,35.42
2022-12-12T07:41:49.662Z,36.03
2022-12-12T07:43:10.076Z,35.00
2022-12-12T07:44:30.493Z,34.42
2022-12-12T07:45:51.326Z,36.70
2022-12-12T07:47:12.103Z,36.72
2022-12-12T07:48:34.067Z,35.83
2022-12-12T07:49:54.329Z,35.40
2022-12-12T07:51:15.413Z,34.88
2022-12-12T07:52:36.043Z,35.55
2022-12-12T07:53:56.658Z,36.17
2022-12-12T07:55:17.365Z,37.70
2022-12-12T07:56:38.366Z,35.75
2022-12-12T07:57:59.256Z,36.75
2022-12-12T07:59:19.562Z,34.17
2022-12-12T08:00:39.811Z,34.20
2022-12-12T08:02:00.573Z,35.17
2022-12-12T08:03:21.158Z,33.85
2022-12-12T08:04:43.450Z,34.53
2022-12-12T08:06:05.320Z,35.72
2022-12-12T08:07:25.668Z,34.78
2022-12-12T08:08:46.867Z,35.80
2022-12-12T08:10:08.037Z,36.38
2022-12-12T08:11:28.717Z,35.45
2022-12-12T08:12:49.215Z,36.05
2022-12-12T08:14:13.141Z,35.83
2022-12-12T08:15:34.579Z,34.92
2022-12-12T08:16:55.183Z,34.47
2022-12-12T08:18:15.739Z,35.22
2022-12-12T08:19:36.307Z,36.03
2022-12-12T08:20:58.207Z,35.47
2022-12-12T08:22:19.245Z,36.88
2022-12-12T08:23:42.569Z,35.30
2022-12-12T08:25:03.346Z,36.75
2022-12-12T08:26:23.920Z,35.63
2022-12-12T08:27:44.328Z,36.97
2022-12-12T08:29:05.411Z,36.50
2022-12-12T08:30:26.115Z,36.58
2022-12-12T08:31:46.686Z,37.33
2022-12-12T08:33:08.308Z,36.28
2022-12-12T08:34:29.055Z,36.10
2022-12-12T08:35:49.569Z,36.45
2022-12-12T08:37:11.641Z,35.70
2022-12-12T08:38:32.567Z,35.33
2022-12-12T08:39:55.743Z,36.13
2022-12-12T08:41:17.260Z,36.72
2022-12-12T08:42:37.644Z,35.55
2022-12-12T08:43:58.550Z,36.83
2022-12-12T08:45:19.170Z,36.85
2022-12-12T08:46:40.250Z,37.97
2022-12-12T08:48:00.764Z,38.92
2022-12-12T08:49:21.392Z,39.10
2022-12-12T08:50:43.688Z,37.70
2022-12-12T08:52:05.362Z,39.63
2022-12-12T08:53:27.937Z,36.22
2022-12-12T08:54:48.216Z,40.00
2022-12-12T08:56:08.671Z,38.85
2022-12-12T08:57:29.333Z,39.63
2022-12-12T08:58:50.192Z,39.08
2022-12-12T09:00:11.909Z,38.28
2022-12-12T09:01:32.726Z,37.42
2022-12-12T09:02:53.392Z,36.30
2022-12-12T09:04:14.629Z,39.13
2022-12-12T09:05:35.551Z,36.20
2022-12-12T09:06:56.030Z,38.35
2022-12-12T09:08:16.571Z,38.65
2022-12-12T09:09:38.451Z,38.30
2022-12-12T09:10:58.970Z,37.83
2022-12-12T09:12:19.673Z,37.10
2022-12-12T09:13:40.578Z,36.67
2022-12-12T09:15:00.988Z,36.33
2022-12-12T09:16:21.644Z,36.10
2022-12-12T09:17:42.260Z,34.90
2022-12-12T09:19:02.826Z,35.90
2022-12-12T09:20:23.637Z,34.72
2022-12-12T09:21:44.206Z,32.53
2022-12-12T09:23:04.943Z,35.10
2022-12-12T09:24:25.685Z,36.40
2022-12-12T09:25:47.644Z,35.30
2022-12-12T09:27:08.190Z,33.90
2022-12-12T09:28:29.397Z,35.83
2022-12-12T09:29:50.029Z,34.95
2022-12-12T09:31:12.151Z,35.85
2022-12-12T09:32:32.726Z,37.38
2022-12-12T09:33:53.856Z,36.30
2022-12-12T09:35:14.323Z,35.75
2022-12-12T09:36:35.417Z,36.80
2022-12-12T09:37:56.156Z,36.70
2022-12-12T09:39:16.954Z,36.25
2022-12-12T09:40:42.804Z,35.80
2022-12-12T09:42:11.589Z,38.72
2022-12-12T09:43:34.941Z,35.28
2022-12-12T09:44:58.866Z,33.85
2022-12-12T09:46:29.752Z,33.92
2022-12-12T09:47:53.950Z,35.30
2022-12-12T09:49:19.122Z,33.88
2022-12-12T09:50:44.265Z,32.40
2022-12-12T09:52:05.253Z,33.17
2022-12-12T09:53:29.032Z,35.00
2022-12-12T09:54:49.511Z,32.75
2022-12-12T09:56:14.138Z,32.40
2022-12-12T09:57:40.033Z,33.15
2022-12-12T09:59:05.399Z,33.35
2022-12-12T10:00:26.837Z,35.55
2022-12-12T10:01:56.285Z,36.03
2022-12-12T10:03:25.210Z,33.83
2022-12-12T10:04:54.077Z,32.70
2022-12-12T10:08:02.105Z,35.58
2022-12-12T10:09:45.599Z,33.35
2022-12-12T10:11:08.378Z,35.20
2022-12-12T10:12:29.514Z,32.35
2022-12-12T10:13:51.656Z,33.45
2022-12-12T10:15:23.487Z,35.58
2022-12-12T10:16:44.511Z,34.25
2022-12-12T10:18:08.477Z,33.92
2022-12-12T10:19:32.008Z,34.10
2022-12-12T10:20:55.303Z,34.90
2022-12-12T10:22:24.561Z,36.20
2022-12-12T10:23:47.697Z,33.58
2022-12-12T10:25:19.545Z,32.85
2022-12-12T10:26:40.002Z,35.10
2022-12-12T10:28:08.738Z,33.92
2022-12-12T10:29:35.459Z,32.92
2022-12-12T10:31:05.513Z,33.67
2022-12-12T10:32:36.928Z,35.00
2022-12-12T10:34:07.359Z,34.38
2022-12-12T10:35:31.593Z,33.20
2022-12-12T10:37:09.670Z,34.28
2022-12-12T10:38:39.736Z,33.03
2022-12-12T10:40:12.523Z,32.50
2022-12-12T10:41:40.092Z,34.22
2022-12-12T10:43:03.641Z,32.10
2022-12-12T10:44:44.146Z,33.67
2022-12-12T10:46:22.951Z,30.90
2022-12-12T10:47:43.952Z,32.67
2022-12-12T10:49:14.069Z,31.35
2022-12-12T10:50:37.368Z,31.20
2022-12-12T10:52:00.070Z,31.73
2022-12-12T10:53:21.625Z,32.60
2022-12-12T10:54:47.047Z,30.58
2022-12-12T10:56:10.118Z,31.63
2022-12-12T10:57:34.870Z,30.60
2022-12-12T10:58:56.883Z,30.13
2022-12-12T11:00:26.993Z,32.78
2022-12-12T11:02:13.161Z,30.13
2022-12-12T11:03:37.294Z,30.20
2022-12-12T11:05:00.238Z,30.67
2022-12-12T11:06:29.424Z,31.85
2022-12-12T11:07:59.807Z,33.92
2022-12-12T11:09:22.705Z,31.55
2022-12-12T11:10:44.065Z,30.33
2022-12-12T11:12:12.285Z,31.17
2022-12-12T11:13:39.789Z,31.27
2022-12-12T11:15:04.519Z,30.00
2022-12-12T11:16:28.668Z,30.17
2022-12-12T11:17:50.208Z,30.38
2022-12-12T11:19:21.788Z,30.27
2022-12-12T11:20:46.766Z,30.10
2022-12-12T11:22:07.493Z,29.90
2022-12-12T11:23:28.772Z,30.80
2022-12-12T11:24:50.539Z,29.63
2022-12-12T11:26:12.852Z,31.58
2022-12-12T11:27:35.749Z,29.38
2022-12-12T11:28:58.384Z,30.23
2022-12-12T11:30:24.131Z,28.95
2022-12-12T11:31:46.283Z,29.42
2022-12-12T11:33:07.670Z,30.23
2022-12-12T11:34:28.671Z,30.33
2022-12-12T11:35:54.088Z,29.40
2022-12-12T11:37:16.468Z,32.33
2022-12-12T11:38:39.240Z,29.20
2022-12-12T11:40:00.000Z,30.58
2022-12-12T11:41:20.866Z,31.10
2022-12-12T11:42:41.510Z,31.85
2022-12-12T11:44:02.238Z,30.48
2022-12-12T11:45:23.445Z,29.23
2022-12-12T11:46:44.167Z,31.40
2022-12-12T11:48:31.400Z,29.60
2022-12-12T11:49:54.289Z,28.65
2022-12-12T11:51:31.520Z,28.75
2022-12-12T11:52:56.885Z,29.27
2022-12-12T11:54:22.655Z,29.33
2022-12-12T11:55:50.105Z,28.02
2022-12-12T11:57:14.464Z,27.33
2022-12-12T11:58:38.269Z,29.73
2022-12-12T12:00:06.037Z,27.75
2022-12-12T12:01:32.808Z,28.20
2022-12-12T12:03:13.568Z,27.02
2022-12-12T12:04:52.905Z,26.50
2022-12-12T12:06:24.426Z,27.75
2022-12-12T12:07:57.612Z,26.13
2022-12-12T12:09:26.392Z,25.95
2022-12-12T12:10:55.726Z,26.55
2022-12-12T12:12:18.195Z,27.58
2022-12-12T12:13:53.422Z,25.77
2022-12-12T12:15:30.199Z,27.38
2022-12-12T12:16:56.386Z,27.38
2022-12-12T12:18:28.409Z,25.95
2022-12-12T12:19:57.089Z,23.77
2022-12-12T12:21:26.401Z,24.23
2022-12-12T12:22:53.329Z,25.17
2022-12-12T12:24:39.899Z,24.45
2022-12-12T12:26:02.794Z,22.58
2022-12-12T12:27:27.922Z,23.67
2022-12-12T12:29:31.019Z,22.98
2022-12-12T12:30:57.797Z,22.83
2022-12-12T12:32:28.272Z,21.98
2022-12-12T12:33:58.591Z,23.10
2022-12-12T12:35:28.281Z,23.23
2022-12-12T12:36:59.517Z,23.65
2022-12-12T12:38:26.242Z,23.20
2022-12-12T12:40:02.444Z,22.42
2022-12-12T12:41:41.526Z,22.92
2022-12-12T12:43:17.036Z,22.80
2022-12-12T12:44:44.371Z,23.48
2022-12-12T12:46:12.467Z,21.15
2022-12-12T12:47:37.420Z,22.38
2022-12-12T12:49:01.276Z,22.27
2022-12-12T12:50:25.153Z,22.23
2022-12-12T12:51:50.530Z,23.52
2022-12-12T12:53:22.272Z,22.65
2022-12-12T12:54:45.925Z,20.57
2022-12-12T12:56:15.304Z,22.17
2022-12-12T12:57:39.258Z,21.98
2022-12-12T12:59:02.354Z,21.40
2022-12-12T13:00:24.753Z,21.65
2022-12-12T13:01:46.764Z,20.30
2022-12-12T13:03:11.898Z,21.92
2022-12-12T13:04:39.812Z,21.40
2022-12-12T13:06:03.311Z,21.60
2022-12-12T13:07:28.969Z,20.98
2022-12-12T13:08:56.855Z,20.65
2022-12-12T13:10:21.215Z,21.88
2022-12-12T13:11:45.109Z,21.67
2022-12-12T13:13:12.358Z,21.67
2022-12-12T13:14:58.864Z,20.25
2022-12-12T13:16:21.302Z,20.95
2022-12-12T13:17:47.160Z,20.13
2022-12-12T13:19:13.103Z,19.55
2022-12-12T13:20:35.655Z,19.20
2022-12-12T13:22:06.609Z,18.55
2022-12-12T13:23:37.812Z,18.67
2022-12-12T13:25:03.843Z,20.52
2022-12-12T13:26:27.760Z,19.45
2022-12-12T13:27:52.435Z,19.92
2022-12-12T13:29:28.107Z,17.75
2022-12-12T13:31:01.706Z,19.63
2022-12-12T13:33:05.702Z,20.15
2022-12-12T13:34:27.534Z,17.80
2022-12-12T13:37:14.142Z,18.23
2022-12-12T13:38:35.139Z,18.73
2022-12-12T13:39:59.667Z,17.92
2022-12-12T13:41:20.225Z,20.33
2022-12-12T13:42:52.738Z,19.67
2022-12-12T13:44:38.662Z,18.67
2022-12-12T13:45:59.227Z,17.35
2022-12-12T13:47:56.749Z,19.08
2022-12-12T13:49:24.303Z,18.02
2022-12-12T13:50:45.061Z,17.73
2022-12-12T13:52:22.307Z,17.80
2022-12-12T13:53:42.600Z,17.58
2022-12-12T13:55:21.823Z,18.77
2022-12-12T13:56:43.370Z,20.08
2022-12-12T13:58:06.964Z,18.70
2022-12-12T13:59:30.606Z,18.60
2022-12-12T14:01:32.259Z,19.00
2022-12-12T14:03:05.903Z,17.83
2022-12-12T14:04:29.194Z,18.52
2022-12-12T14:05:50.966Z,18.48
2022-12-12T14:07:16.565Z,19.95
2022-12-12T14:08:47.581Z,19.90
2022-12-12T14:10:21.873Z,18.00
2022-12-12T14:11:42.377Z,17.38
2022-12-12T14:13:26.369Z,19.77
2022-12-12T14:14:52.116Z,16.85
2022-12-12T14:16:22.035Z,18.05
2022-12-12T14:17:51.656Z,17.70
2022-12-12T14:19:29.881Z,18.00
2022-12-12T14:20:53.912Z,16.52
2022-12-12T14:22:26.397Z,16.80
2022-12-12T14:23:49.741Z,17.27
2022-12-12T14:25:19.352Z,17.35
2022-12-12T14:26:50.179Z,17.70
2022-12-12T14:28:22.551Z,16.52
2022-12-12T14:29:43.871Z,16.70
2022-12-12T14:31:14.307Z,18.67
2022-12-12T14:32:40.759Z,17.00
2022-12-12T14:34:12.990Z,17.48
2022-12-12T14:35:41.874Z,17.50
2022-12-12T14:37:16.529Z,17.00
2022-12-12T14:38:40.387Z,18.15
2022-12-12T14:40:08.812Z,17.85
2022-12-12T14:41:35.106Z,18.60
2022-12-12T14:43:19.174Z,20.65
2022-12-12T14:44:47.889Z,20.42
2022-12-12T14:46:15.073Z,19.75
2022-12-12T14:47:35.408Z,19.52
2022-12-12T14:49:01.780Z,18.85
2022-12-12T14:50:22.153Z,18.83
2022-12-12T14:51:44.551Z,18.55
2022-12-12T14:53:14.090Z,19.40
2022-12-12T14:54:36.189Z,20.02
2022-12-12T14:56:00.947Z,21.17
2022-12-12T14:57:23.357Z,21.02
2022-12-12T14:58:47.160Z,19.67
2022-12-12T15:00:16.739Z,19.55
2022-12-12T15:01:40.801Z,19.63
2022-12-12T15:03:01.050Z,18.55
2022-12-12T15:04:23.544Z,19.90
2022-12-12T15:05:44.272Z,19.13
2022-12-12T15:07:06.179Z,18.42
2022-12-12T15:08:26.771Z,20.33
2022-12-12T15:09:48.773Z,19.13
2022-12-12T15:11:14.798Z,19.45
2022-12-12T15:12:35.839Z,19.83
2022-12-12T15:13:58.015Z,19.17
2022-12-12T15:15:23.703Z,20.33
2022-12-12T15:16:48.621Z,19.95
2022-12-12T15:18:10.052Z,18.52
2022-12-12T15:19:33.728Z,20.90
2022-12-12T15:20:56.584Z,18.95
2022-12-12T15:22:22.633Z,19.90
2022-12-12T15:23:43.575Z,20.15
2022-12-12T15:25:14.718Z,19.83
2022-12-12T15:26:36.713Z,20.85
2022-12-12T15:27:58.004Z,19.85
2022-12-12T15:29:20.516Z,20.83
2022-12-12T15:30:43.186Z,19.90
2022-12-12T15:32:06.081Z,19.52
2022-12-12T15:33:27.449Z,19.98
2022-12-12T15:34:48.969Z,19.85
2022-12-12T15:36:18.319Z,19.33
2022-12-12T15:37:40.514Z,20.23
2022-12-12T15:39:13.378Z,19.30
2022-12-12T15:40:34.450Z,20.85
2022-12-12T15:41:56.514Z,21.83
2022-12-12T15:43:18.880Z,21.60
2022-12-12T15:44:39.628Z,21.63
2022-12-12T15:46:01.948Z,23.20
2022-12-12T15:47:22.626Z,22.05
2022-12-12T15:48:43.211Z,23.52
2022-12-12T15:50:09.963Z,23.00
2022-12-12T15:51:31.184Z,23.48
2022-12-12T15:53:05.981Z,23.23
2022-12-12T15:54:26.803Z,23.58
2022-12-12T15:55:53.692Z,22.95
2022-12-12T15:57:17.166Z,22.90
2022-12-12T15:58:40.265Z,23.67
2022-12-12T16:00:04.489Z,24.10
2022-12-12T16:01:27.486Z,25.88
2022-12-12T16:02:58.238Z,24.20
2022-12-12T16:04:23.818Z,25.38
2022-12-12T16:05:44.808Z,25.50
2022-12-12T16:07:15.149Z,23.73
2022-12-12T16:08:45.677Z,23.52
2022-12-12T16:10:21.809Z,23.85
2022-12-12T16:11:44.786Z,24.42
2022-12-12T16:13:23.504Z,24.27
2022-12-12T16:14:44.009Z,24.50
2022-12-12T16:16:36.907Z,26.07
2022-12-12T16:18:02.832Z,25.52
2022-12-12T16:19:36.981Z,26.10
2022-12-12T16:20:57.687Z,26.42
2022-12-12T16:22:31.233Z,25.05
2022-12-12T16:23:51.864Z,26.90
2022-12-12T16:25:17.243Z,25.70
2022-12-12T16:26:37.766Z,25.30
2022-12-12T16:28:00.691Z,25.27
2022-12-12T16:29:22.745Z,23.60
2022-12-12T16:30:44.637Z,24.95
2022-12-12T16:32:05.643Z,23.75
2022-12-12T16:33:31.087Z,24.58
2022-12-12T16:34:51.694Z,22.13
2022-12-12T16:36:16.397Z,23.90
2022-12-12T16:37:36.901Z,24.77
2022-12-12T16:38:57.616Z,25.98
2022-12-12T16:40:19.484Z,27.35
2022-12-12T16:41:40.168Z,26.50
2022-12-12T16:43:07.725Z,27.33
2022-12-12T16:44:31.260Z,27.38
2022-12-12T16:45:53.530Z,27.33
2022-12-12T16:47:18.791Z,27.17
2022-12-12T16:48:39.415Z,26.83
2022-12-12T16:50:00.193Z,26.75
2022-12-12T16:51:25.930Z,25.65
2022-12-12T16:52:46.437Z,26.90
2022-12-12T16:54:15.316Z,27.13
2022-12-12T16:55:36.861Z,27.83
2022-12-12T16:56:57.621Z,25.55
2022-12-12T16:58:18.839Z,27.30
2022-12-12T16:59:40.684Z,27.83
2022-12-12T17:01:01.284Z,26.85
2022-12-12T17:02:23.872Z,27.83
2022-12-12T17:03:44.745Z,28.08
2022-12-12T17:05:05.940Z,28.35
2022-12-12T17:06:26.544Z,27.15
2022-12-12T17:07:47.415Z,28.58
2022-12-12T17:09:07.853Z,30.20
2022-12-12T17:10:29.738Z,31.33
2022-12-12T17:11:50.357Z,30.23
2022-12-12T17:13:14.411Z,29.80
2022-12-12T17:14:35.235Z,30.67
2022-12-12T17:15:57.176Z,30.17
2022-12-12T17:17:17.757Z,33.75
2022-12-12T17:18:38.678Z,35.38
2022-12-12T17:19:59.250Z,34.73
2022-12-12T17:21:19.683Z,36.97
2022-12-12T17:22:40.375Z,42.90
2022-12-12T17:24:01.389Z,39.28
2022-12-12T17:25:22.137Z,35.50
2022-12-12T17:26:42.817Z,33.55
2022-12-12T17:28:03.551Z,31.65
2022-12-12T17:29:24.224Z,30.83
2022-12-12T17:30:45.258Z,30.92
2022-12-12T17:32:07.441Z,31.27
2022-12-12T17:33:28.785Z,31.05
2022-12-12T17:34:49.182Z,31.42
2022-12-12T17:36:13.216Z,30.63
2022-12-12T17:37:34.009Z,30.17
2022-12-12T17:38:54.620Z,30.67
2022-12-12T17:41:36.528Z,28.70
2022-12-12T17:42:57.119Z,30.98
2022-12-12T17:44:18.009Z,30.65
2022-12-12T17:45:38.719Z,33.05
2022-12-12T17:46:59.501Z,33.05
2022-12-12T17:48:29.365Z,34.17
2022-12-12T17:49:49.998Z,35.00
2022-12-12T17:51:12.291Z,34.05
2022-12-12T17:52:32.962Z,35.80
2022-12-12T17:53:54.720Z,35.42
2022-12-12T17:55:54.014Z,39.33
2022-12-12T17:56:55.753Z,36.90
2022-12-12T17:58:16.787Z,37.08
2022-12-12T17:59:37.949Z,37.30
2022-12-12T18:00:59.955Z,37.60
2022-12-12T18:02:20.584Z,37.65
2022-12-12T18:03:42.978Z,37.30
2022-12-12T18:05:03.831Z,35.17
2022-12-12T18:06:25.098Z,37.17
2022-12-12T18:07:45.384Z,37.45
2022-12-12T18:09:06.105Z,35.28
2022-12-12T18:10:26.819Z,36.85
2022-12-12T18:11:47.408Z,35.85
2022-12-12T18:13:08.339Z,35.78